sensor_id;sensor_type;location;lat;lon;timestamp;temperature;humidity
13992;DHT22;7070;53.586;9.692;2023-04-25T00:00:47;9.50;81.30
13992;DHT22;7070;53.586;9.692;2023-04-25T00:03:14;9.50;81.30
13992;DHT22;7070;53.586;9.692;2023-04-25T00:05:41;9.40;81.30
13992;DHT22;7070;53.586;9.692;2023-04-25T00:08:09;9.30;81.10
13992;DHT22;7070;53.586;9.692;2023-04-25T00:10:36;9.40;81.20
13992;DHT22;7070;53.586;9.692;2023-04-25T00:13:03;9.30;81.00
13992;DHT22;7070;53.586;9.692;2023-04-25T00:15:30;9.40;81.00
13992;DHT22;7070;53.586;9.692;2023-04-25T00:17:57;9.40;80.80
13992;DHT22;7070;53.586;9.692;2023-04-25T00:20:24;9.30;80.50
13992;DHT22;7070;53.586;9.692;2023-04-25T00:22:51;9.30;80.30
13992;DHT22;7070;53.586;9.692;2023-04-25T00:25:20;9.30;80.20
13992;DHT22;7070;53.586;9.692;2023-04-25T00:27:47;9.30;80.10
13992;DHT22;7070;53.586;9.692;2023-04-25T00:30:14;9.20;80.00
13992;DHT22;7070;53.586;9.692;2023-04-25T00:32:41;9.30;79.90
13992;DHT22;7070;53.586;9.692;2023-04-25T00:35:09;9.20;79.70
13992;DHT22;7070;53.586;9.692;2023-04-25T00:37:36;9.20;79.60
13992;DHT22;7070;53.586;9.692;2023-04-25T00:40:05;9.20;79.70
13992;DHT22;7070;53.586;9.692;2023-04-25T00:42:35;9.10;79.50
13992;DHT22;7070;53.586;9.692;2023-04-25T00:45:04;9.20;79.50
13992;DHT22;7070;53.586;9.692;2023-04-25T00:47:32;9.10;79.20
13992;DHT22;7070;53.586;9.692;2023-04-25T00:49:59;9.10;79.20
13992;DHT22;7070;53.586;9.692;2023-04-25T00:52:26;9.10;79.10
13992;DHT22;7070;53.586;9.692;2023-04-25T00:54:53;9.10;79.60
13992;DHT22;7070;53.586;9.692;2023-04-25T00:57:20;9.00;78.60
13992;DHT22;7070;53.586;9.692;2023-04-25T00:59:51;9.00;78.50
13992;DHT22;7070;53.586;9.692;2023-04-25T01:02:18;9.00;78.40
13992;DHT22;7070;53.586;9.692;2023-04-25T01:04:46;8.90;78.30
13992;DHT22;7070;53.586;9.692;2023-04-25T01:07:14;8.90;78.20
13992;DHT22;7070;53.586;9.692;2023-04-25T01:09:41;8.90;78.20
13992;DHT22;7070;53.586;9.692;2023-04-25T01:12:08;8.90;78.10
13992;DHT22;7070;53.586;9.692;2023-04-25T01:14:35;8.80;78.60
13992;DHT22;7070;53.586;9.692;2023-04-25T01:17:03;8.80;78.60
13992;DHT22;7070;53.586;9.692;2023-04-25T01:19:30;8.80;77.70
13992;DHT22;7070;53.586;9.692;2023-04-25T01:21:59;8.70;77.70
13992;DHT22;7070;53.586;9.692;2023-04-25T01:24:26;8.70;77.60
13992;DHT22;7070;53.586;9.692;2023-04-25T01:26:54;8.70;77.70
13992;DHT22;7070;53.586;9.692;2023-04-25T01:29:23;8.70;77.70
13992;DHT22;7070;53.586;9.692;2023-04-25T01:31:51;8.60;77.50
13992;DHT22;7070;53.586;9.692;2023-04-25T01:34:18;8.60;77.60
13992;DHT22;7070;53.586;9.692;2023-04-25T01:36:47;8.60;77.70
13992;DHT22;7070;53.586;9.692;2023-04-25T01:39:16;8.60;77.60
13992;DHT22;7070;53.586;9.692;2023-04-25T01:41:44;8.60;77.80
13992;DHT22;7070;53.586;9.692;2023-04-25T01:44:11;8.50;77.50
13992;DHT22;7070;53.586;9.692;2023-04-25T01:46:38;8.50;78.30
13992;DHT22;7070;53.586;9.692;2023-04-25T01:49:05;8.50;77.40
13992;DHT22;7070;53.586;9.692;2023-04-25T01:51:32;8.40;77.20
13992;DHT22;7070;53.586;9.692;2023-04-25T01:53:59;8.40;77.20
13992;DHT22;7070;53.586;9.692;2023-04-25T01:56:30;8.40;77.20
13992;DHT22;7070;53.586;9.692;2023-04-25T01:58:57;8.40;77.00
13992;DHT22;7070;53.586;9.692;2023-04-25T02:01:24;8.40;76.80
13992;DHT22;7070;53.586;9.692;2023-04-25T02:03:51;8.30;76.70
13992;DHT22;7070;53.586;9.692;2023-04-25T02:06:18;8.20;77.30
13992;DHT22;7070;53.586;9.692;2023-04-25T02:08:44;8.20;76.50
13992;DHT22;7070;53.586;9.692;2023-04-25T02:11:11;8.20;76.40
13992;DHT22;7070;53.586;9.692;2023-04-25T02:13:40;8.20;76.50
13992;DHT22;7070;53.586;9.692;2023-04-25T02:16:07;8.10;76.40
13992;DHT22;7070;53.586;9.692;2023-04-25T02:18:33;8.10;76.40
13992;DHT22;7070;53.586;9.692;2023-04-25T02:21:02;8.10;76.40
13992;DHT22;7070;53.586;9.692;2023-04-25T02:23:29;8.00;76.40
13992;DHT22;7070;53.586;9.692;2023-04-25T02:25:56;8.00;76.40
13992;DHT22;7070;53.586;9.692;2023-04-25T02:28:24;8.10;76.50
13992;DHT22;7070;53.586;9.692;2023-04-25T02:30:52;8.00;76.20
13992;DHT22;7070;53.586;9.692;2023-04-25T02:33:19;8.00;76.10
13992;DHT22;7070;53.586;9.692;2023-04-25T02:35:46;8.00;75.90
13992;DHT22;7070;53.586;9.692;2023-04-25T02:38:13;8.00;75.80
13992;DHT22;7070;53.586;9.692;2023-04-25T02:40:40;8.00;75.70
13992;DHT22;7070;53.586;9.692;2023-04-25T02:43:07;8.00;75.50
13992;DHT22;7070;53.586;9.692;2023-04-25T02:45:34;8.00;75.50
13992;DHT22;7070;53.586;9.692;2023-04-25T02:48:03;8.00;75.50
13992;DHT22;7070;53.586;9.692;2023-04-25T02:50:30;8.00;75.40
13992;DHT22;7070;53.586;9.692;2023-04-25T02:52:57;8.00;75.20
13992;DHT22;7070;53.586;9.692;2023-04-25T02:55:24;7.90;74.80
13992;DHT22;7070;53.586;9.692;2023-04-25T02:57:51;7.80;74.60
13992;DHT22;7070;53.586;9.692;2023-04-25T03:00:20;7.80;75.10
13992;DHT22;7070;53.586;9.692;2023-04-25T03:02:47;7.80;74.30
13992;DHT22;7070;53.586;9.692;2023-04-25T03:05:16;7.70;74.00
13992;DHT22;7070;53.586;9.692;2023-04-25T03:07:43;7.60;73.80
13992;DHT22;7070;53.586;9.692;2023-04-25T03:10:11;7.60;73.70
13992;DHT22;7070;53.586;9.692;2023-04-25T03:12:38;7.50;73.50
13992;DHT22;7070;53.586;9.692;2023-04-25T03:15:06;7.30;73.40
13992;DHT22;7070;53.586;9.692;2023-04-25T03:17:33;7.20;73.30
13992;DHT22;7070;53.586;9.692;2023-04-25T03:20:00;7.10;73.30
13992;DHT22;7070;53.586;9.692;2023-04-25T03:22:28;6.90;73.20
13992;DHT22;7070;53.586;9.692;2023-04-25T03:24:55;6.80;73.30
13992;DHT22;7070;53.586;9.692;2023-04-25T03:27:22;6.70;73.40
13992;DHT22;7070;53.586;9.692;2023-04-25T03:29:49;6.70;73.80
13992;DHT22;7070;53.586;9.692;2023-04-25T03:32:16;6.60;74.00
13992;DHT22;7070;53.586;9.692;2023-04-25T03:34:42;6.60;74.00
13992;DHT22;7070;53.586;9.692;2023-04-25T03:37:09;6.60;74.10
13992;DHT22;7070;53.586;9.692;2023-04-25T03:39:37;6.60;74.10
13992;DHT22;7070;53.586;9.692;2023-04-25T03:42:04;6.60;74.00
13992;DHT22;7070;53.586;9.692;2023-04-25T03:44:31;6.60;74.00
13992;DHT22;7070;53.586;9.692;2023-04-25T03:46:58;6.70;73.80
13992;DHT22;7070;53.586;9.692;2023-04-25T03:49:25;6.70;73.70
13992;DHT22;7070;53.586;9.692;2023-04-25T03:51:52;6.70;73.50
13992;DHT22;7070;53.586;9.692;2023-04-25T03:54:19;6.70;73.40
13992;DHT22;7070;53.586;9.692;2023-04-25T03:56:47;6.70;73.10
13992;DHT22;7070;53.586;9.692;2023-04-25T03:59:14;6.70;73.00
13992;DHT22;7070;53.586;9.692;2023-04-25T04:01:41;6.70;72.90
13992;DHT22;7070;53.586;9.692;2023-04-25T04:04:08;6.60;72.80
13992;DHT22;7070;53.586;9.692;2023-04-25T04:06:34;6.60;72.80
13992;DHT22;7070;53.586;9.692;2023-04-25T04:09:01;6.60;72.80
13992;DHT22;7070;53.586;9.692;2023-04-25T04:11:28;6.60;72.70
13992;DHT22;7070;53.586;9.692;2023-04-25T04:13:58;6.50;72.50
13992;DHT22;7070;53.586;9.692;2023-04-25T04:16:25;6.50;72.40
13992;DHT22;7070;53.586;9.692;2023-04-25T04:18:52;6.40;72.20
13992;DHT22;7070;53.586;9.692;2023-04-25T04:21:19;6.30;72.20
13992;DHT22;7070;53.586;9.692;2023-04-25T04:23:46;6.30;72.30
13992;DHT22;7070;53.586;9.692;2023-04-25T04:26:13;6.20;72.60
13992;DHT22;7070;53.586;9.692;2023-04-25T04:28:42;6.20;72.80
13992;DHT22;7070;53.586;9.692;2023-04-25T04:31:10;6.20;73.10
13992;DHT22;7070;53.586;9.692;2023-04-25T04:33:37;6.20;74.00
13992;DHT22;7070;53.586;9.692;2023-04-25T04:36:05;6.30;73.50
13992;DHT22;7070;53.586;9.692;2023-04-25T04:38:33;6.40;73.70
13992;DHT22;7070;53.586;9.692;2023-04-25T04:41:00;6.40;73.80
13992;DHT22;7070;53.586;9.692;2023-04-25T04:43:27;6.40;73.80
13992;DHT22;7070;53.586;9.692;2023-04-25T04:45:54;6.50;73.90
13992;DHT22;7070;53.586;9.692;2023-04-25T04:48:24;6.60;74.00
13992;DHT22;7070;53.586;9.692;2023-04-25T04:50:50;6.60;74.00
13992;DHT22;7070;53.586;9.692;2023-04-25T04:53:17;6.70;74.00
13992;DHT22;7070;53.586;9.692;2023-04-25T04:55:44;6.80;74.00
13992;DHT22;7070;53.586;9.692;2023-04-25T04:58:11;6.80;74.00
13992;DHT22;7070;53.586;9.692;2023-04-25T05:00:38;6.90;73.90
13992;DHT22;7070;53.586;9.692;2023-04-25T05:03:05;6.90;73.70
13992;DHT22;7070;53.586;9.692;2023-04-25T05:05:33;7.00;73.70
13992;DHT22;7070;53.586;9.692;2023-04-25T05:08:00;7.00;73.60
13992;DHT22;7070;53.586;9.692;2023-04-25T05:10:27;7.10;73.60
13992;DHT22;7070;53.586;9.692;2023-04-25T05:12:54;7.10;73.50
13992;DHT22;7070;53.586;9.692;2023-04-25T05:15:21;7.20;73.60
13992;DHT22;7070;53.586;9.692;2023-04-25T05:17:48;7.30;73.70
13992;DHT22;7070;53.586;9.692;2023-04-25T05:20:14;7.20;73.50
13992;DHT22;7070;53.586;9.692;2023-04-25T05:22:43;7.30;73.60
13992;DHT22;7070;53.586;9.692;2023-04-25T05:25:10;7.40;73.60
13992;DHT22;7070;53.586;9.692;2023-04-25T05:27:37;7.50;73.70
13992;DHT22;7070;53.586;9.692;2023-04-25T05:30:05;7.50;73.70
13992;DHT22;7070;53.586;9.692;2023-04-25T05:32:32;7.50;73.60
13992;DHT22;7070;53.586;9.692;2023-04-25T05:34:59;7.50;73.60
13992;DHT22;7070;53.586;9.692;2023-04-25T05:37:26;7.60;73.70
13992;DHT22;7070;53.586;9.692;2023-04-25T05:39:54;7.60;73.60
13992;DHT22;7070;53.586;9.692;2023-04-25T05:42:21;7.70;73.70
13992;DHT22;7070;53.586;9.692;2023-04-25T05:44:48;7.70;73.60
13992;DHT22;7070;53.586;9.692;2023-04-25T05:47:15;7.70;73.60
13992;DHT22;7070;53.586;9.692;2023-04-25T05:49:42;7.80;73.70
13992;DHT22;7070;53.586;9.692;2023-04-25T05:52:09;7.90;73.70
13992;DHT22;7070;53.586;9.692;2023-04-25T05:54:35;8.00;73.80
13992;DHT22;7070;53.586;9.692;2023-04-25T05:57:04;8.00;73.60
13992;DHT22;7070;53.586;9.692;2023-04-25T05:59:31;8.00;73.50
13992;DHT22;7070;53.586;9.692;2023-04-25T06:01:57;8.20;73.50
13992;DHT22;7070;53.586;9.692;2023-04-25T06:04:25;8.20;73.30
13992;DHT22;7070;53.586;9.692;2023-04-25T06:06:52;8.20;73.30
13992;DHT22;7070;53.586;9.692;2023-04-25T06:09:19;8.30;73.40
13992;DHT22;7070;53.586;9.692;2023-04-25T06:11:45;8.30;73.40
13992;DHT22;7070;53.586;9.692;2023-04-25T06:14:13;8.50;73.50
13992;DHT22;7070;53.586;9.692;2023-04-25T06:16:40;8.40;74.10
13992;DHT22;7070;53.586;9.692;2023-04-25T06:19:07;8.30;73.30
13992;DHT22;7070;53.586;9.692;2023-04-25T06:21:34;8.30;73.40
13992;DHT22;7070;53.586;9.692;2023-04-25T06:24:01;8.40;73.60
13992;DHT22;7070;53.586;9.692;2023-04-25T06:26:28;8.40;73.80
13992;DHT22;7070;53.586;9.692;2023-04-25T06:28:54;8.50;73.90
13992;DHT22;7070;53.586;9.692;2023-04-25T06:31:23;8.60;73.90
13992;DHT22;7070;53.586;9.692;2023-04-25T06:33:50;8.60;73.90
13992;DHT22;7070;53.586;9.692;2023-04-25T06:36:20;8.70;74.00
13992;DHT22;7070;53.586;9.692;2023-04-25T06:38:50;8.70;74.10
13992;DHT22;7070;53.586;9.692;2023-04-25T06:41:17;8.80;74.10
13992;DHT22;7070;53.586;9.692;2023-04-25T06:43:44;8.80;74.00
13992;DHT22;7070;53.586;9.692;2023-04-25T06:46:11;9.00;74.80
13992;DHT22;7070;53.586;9.692;2023-04-25T06:48:39;9.00;74.00
13992;DHT22;7070;53.586;9.692;2023-04-25T06:51:06;9.10;74.00
13992;DHT22;7070;53.586;9.692;2023-04-25T06:53:33;9.20;74.00
13992;DHT22;7070;53.586;9.692;2023-04-25T06:56:00;9.20;73.80
13992;DHT22;7070;53.586;9.692;2023-04-25T06:58:26;9.20;73.80
13992;DHT22;7070;53.586;9.692;2023-04-25T07:00:53;9.40;74.00
13992;DHT22;7070;53.586;9.692;2023-04-25T07:03:20;9.40;74.10
13992;DHT22;7070;53.586;9.692;2023-04-25T07:05:48;9.50;74.00
13992;DHT22;7070;53.586;9.692;2023-04-25T07:08:15;9.60;74.20
13992;DHT22;7070;53.586;9.692;2023-04-25T07:10:42;9.60;74.00
13992;DHT22;7070;53.586;9.692;2023-04-25T07:13:11;9.70;73.70
13992;DHT22;7070;53.586;9.692;2023-04-25T07:15:38;9.80;73.40
13992;DHT22;7070;53.586;9.692;2023-04-25T07:18:05;9.80;73.20
13992;DHT22;7070;53.586;9.692;2023-04-25T07:20:32;9.80;73.10
13992;DHT22;7070;53.586;9.692;2023-04-25T07:23:00;9.80;73.20
13992;DHT22;7070;53.586;9.692;2023-04-25T07:25:27;9.90;73.30
13992;DHT22;7070;53.586;9.692;2023-04-25T07:27:53;9.90;73.20
13992;DHT22;7070;53.586;9.692;2023-04-25T07:30:20;10.00;72.20
13992;DHT22;7070;53.586;9.692;2023-04-25T07:32:47;10.20;72.40
13992;DHT22;7070;53.586;9.692;2023-04-25T07:35:14;10.10;72.40
13992;DHT22;7070;53.586;9.692;2023-04-25T07:37:41;10.30;72.70
13992;DHT22;7070;53.586;9.692;2023-04-25T07:40:10;10.40;72.60
13992;DHT22;7070;53.586;9.692;2023-04-25T07:42:37;10.60;72.70
13992;DHT22;7070;53.586;9.692;2023-04-25T07:45:04;10.60;72.40
13992;DHT22;7070;53.586;9.692;2023-04-25T07:47:31;10.80;72.20
13992;DHT22;7070;53.586;9.692;2023-04-25T07:49:58;10.90;72.70
13992;DHT22;7070;53.586;9.692;2023-04-25T07:52:27;11.00;71.70
13992;DHT22;7070;53.586;9.692;2023-04-25T07:54:55;11.10;71.60
13992;DHT22;7070;53.586;9.692;2023-04-25T07:57:24;11.20;71.20
13992;DHT22;7070;53.586;9.692;2023-04-25T07:59:51;11.30;71.00
13992;DHT22;7070;53.586;9.692;2023-04-25T08:02:18;11.30;70.40
13992;DHT22;7070;53.586;9.692;2023-04-25T08:04:45;11.30;70.30
13992;DHT22;7070;53.586;9.692;2023-04-25T08:07:12;11.30;70.10
13992;DHT22;7070;53.586;9.692;2023-04-25T08:09:39;11.30;70.50
13992;DHT22;7070;53.586;9.692;2023-04-25T08:12:06;11.40;70.90
13992;DHT22;7070;53.586;9.692;2023-04-25T08:14:35;11.50;70.70
13992;DHT22;7070;53.586;9.692;2023-04-25T08:17:02;11.50;70.50
13992;DHT22;7070;53.586;9.692;2023-04-25T08:19:30;11.50;70.30
13992;DHT22;7070;53.586;9.692;2023-04-25T08:21:56;11.60;70.10
13992;DHT22;7070;53.586;9.692;2023-04-25T08:24:23;11.70;70.00
13992;DHT22;7070;53.586;9.692;2023-04-25T08:26:51;11.60;70.00
13992;DHT22;7070;53.586;9.692;2023-04-25T08:29:18;11.60;70.30
13992;DHT22;7070;53.586;9.692;2023-04-25T08:31:46;11.70;70.50
13992;DHT22;7070;53.586;9.692;2023-04-25T08:34:13;11.80;70.40
13992;DHT22;7070;53.586;9.692;2023-04-25T08:36:40;11.80;69.60
13992;DHT22;7070;53.586;9.692;2023-04-25T08:39:07;11.80;69.10
13992;DHT22;7070;53.586;9.692;2023-04-25T08:41:35;11.60;69.20
13992;DHT22;7070;53.586;9.692;2023-04-25T08:44:03;11.30;69.70
13992;DHT22;7070;53.586;9.692;2023-04-25T08:46:30;11.00;70.50
13992;DHT22;7070;53.586;9.692;2023-04-25T08:49:01;10.70;70.90
13992;DHT22;7070;53.586;9.692;2023-04-25T08:51:30;10.40;71.30
13992;DHT22;7070;53.586;9.692;2023-04-25T08:54:08;10.10;71.90
13992;DHT22;7070;53.586;9.692;2023-04-25T08:56:36;9.90;73.50
13992;DHT22;7070;53.586;9.692;2023-04-25T08:59:03;9.70;74.00
13992;DHT22;7070;53.586;9.692;2023-04-25T09:01:30;9.50;74.50
13992;DHT22;7070;53.586;9.692;2023-04-25T09:03:59;9.40;74.90
13992;DHT22;7070;53.586;9.692;2023-04-25T09:06:25;9.40;75.50
13992;DHT22;7070;53.586;9.692;2023-04-25T09:08:53;9.30;75.80
13992;DHT22;7070;53.586;9.692;2023-04-25T09:11:20;9.30;76.00
13992;DHT22;7070;53.586;9.692;2023-04-25T09:13:46;9.30;76.00
13992;DHT22;7070;53.586;9.692;2023-04-25T09:16:13;9.30;76.20
13992;DHT22;7070;53.586;9.692;2023-04-25T09:18:42;9.40;76.60
13992;DHT22;7070;53.586;9.692;2023-04-25T09:21:11;9.40;76.90
13992;DHT22;7070;53.586;9.692;2023-04-25T09:23:40;9.50;77.80
13992;DHT22;7070;53.586;9.692;2023-04-25T09:26:07;9.60;78.00
13992;DHT22;7070;53.586;9.692;2023-04-25T09:28:35;9.80;77.70
13992;DHT22;7070;53.586;9.692;2023-04-25T09:31:03;9.80;77.50
13992;DHT22;7070;53.586;9.692;2023-04-25T09:33:31;9.80;77.10
13992;DHT22;7070;53.586;9.692;2023-04-25T09:36:03;9.90;77.10
13992;DHT22;7070;53.586;9.692;2023-04-25T09:38:34;9.80;77.20
13992;DHT22;7070;53.586;9.692;2023-04-25T09:41:06;9.80;77.20
13992;DHT22;7070;53.586;9.692;2023-04-25T09:43:32;9.80;77.60
13992;DHT22;7070;53.586;9.692;2023-04-25T09:46:00;9.90;77.90
13992;DHT22;7070;53.586;9.692;2023-04-25T09:48:28;10.00;77.10
13992;DHT22;7070;53.586;9.692;2023-04-25T09:51:06;10.20;77.50
13992;DHT22;7070;53.586;9.692;2023-04-25T09:53:35;10.40;78.50
13992;DHT22;7070;53.586;9.692;2023-04-25T09:56:04;10.50;77.80
13992;DHT22;7070;53.586;9.692;2023-04-25T09:58:32;10.80;78.00
13992;DHT22;7070;53.586;9.692;2023-04-25T10:01:02;11.10;78.00
13992;DHT22;7070;53.586;9.692;2023-04-25T10:03:30;11.10;75.80
13992;DHT22;7070;53.586;9.692;2023-04-25T10:05:59;11.00;73.80
13992;DHT22;7070;53.586;9.692;2023-04-25T10:08:31;10.90;73.40
13992;DHT22;7070;53.586;9.692;2023-04-25T10:11:02;10.70;74.30
13992;DHT22;7070;53.586;9.692;2023-04-25T10:13:30;10.50;74.30
13992;DHT22;7070;53.586;9.692;2023-04-25T10:15:57;10.50;75.10
13992;DHT22;7070;53.586;9.692;2023-04-25T10:18:25;10.50;75.70
13992;DHT22;7070;53.586;9.692;2023-04-25T10:20:53;10.50;75.80
13992;DHT22;7070;53.586;9.692;2023-04-25T10:23:21;10.50;75.90
13992;DHT22;7070;53.586;9.692;2023-04-25T10:25:48;10.60;75.90
13992;DHT22;7070;53.586;9.692;2023-04-25T10:28:17;10.60;76.00
13992;DHT22;7070;53.586;9.692;2023-04-25T10:30:59;10.70;75.90
13992;DHT22;7070;53.586;9.692;2023-04-25T10:33:36;10.70;75.60
13992;DHT22;7070;53.586;9.692;2023-04-25T10:36:10;10.80;75.50
13992;DHT22;7070;53.586;9.692;2023-04-25T10:38:38;10.90;75.30
13992;DHT22;7070;53.586;9.692;2023-04-25T10:41:06;11.00;74.90
13992;DHT22;7070;53.586;9.692;2023-04-25T10:43:36;11.10;74.60
13992;DHT22;7070;53.586;9.692;2023-04-25T10:46:16;11.20;74.10
13992;DHT22;7070;53.586;9.692;2023-04-25T10:48:46;11.20;73.50
13992;DHT22;7070;53.586;9.692;2023-04-25T10:51:17;11.30;73.50
13992;DHT22;7070;53.586;9.692;2023-04-25T10:53:45;11.30;73.20
13992;DHT22;7070;53.586;9.692;2023-04-25T10:56:16;11.40;72.80
13992;DHT22;7070;53.586;9.692;2023-04-25T10:58:46;11.50;72.50
13992;DHT22;7070;53.586;9.692;2023-04-25T11:01:13;11.50;73.40
13992;DHT22;7070;53.586;9.692;2023-04-25T11:03:42;11.60;72.70
13992;DHT22;7070;53.586;9.692;2023-04-25T11:06:19;11.70;72.80
13992;DHT22;7070;53.586;9.692;2023-04-25T11:08:49;11.80;72.60
13992;DHT22;7070;53.586;9.692;2023-04-25T11:11:16;12.00;72.30
13992;DHT22;7070;53.586;9.692;2023-04-25T11:13:46;12.10;72.00
13992;DHT22;7070;53.586;9.692;2023-04-25T11:16:14;12.40;72.10
13992;DHT22;7070;53.586;9.692;2023-04-25T11:18:41;12.50;71.40
13992;DHT22;7070;53.586;9.692;2023-04-25T11:21:08;12.60;70.70
13992;DHT22;7070;53.586;9.692;2023-04-25T11:23:35;12.70;70.50
13992;DHT22;7070;53.586;9.692;2023-04-25T11:26:02;12.50;70.30
13992;DHT22;7070;53.586;9.692;2023-04-25T11:28:29;12.30;70.30
13992;DHT22;7070;53.586;9.692;2023-04-25T11:30:58;12.10;70.40
13992;DHT22;7070;53.586;9.692;2023-04-25T11:33:25;11.90;70.60
13992;DHT22;7070;53.586;9.692;2023-04-25T11:35:53;11.80;70.80
13992;DHT22;7070;53.586;9.692;2023-04-25T11:38:22;11.50;70.90
13992;DHT22;7070;53.586;9.692;2023-04-25T11:40:52;11.30;71.00
13992;DHT22;7070;53.586;9.692;2023-04-25T11:43:20;11.10;71.40
13992;DHT22;7070;53.586;9.692;2023-04-25T11:45:48;10.90;72.10
13992;DHT22;7070;53.586;9.692;2023-04-25T11:48:17;10.70;72.60
13992;DHT22;7070;53.586;9.692;2023-04-25T11:50:44;10.60;73.50
13992;DHT22;7070;53.586;9.692;2023-04-25T11:53:11;10.60;73.90
13992;DHT22;7070;53.586;9.692;2023-04-25T11:55:38;10.60;74.00
13992;DHT22;7070;53.586;9.692;2023-04-25T11:58:05;10.60;73.10
13992;DHT22;7070;53.586;9.692;2023-04-25T12:00:35;10.50;72.90
13992;DHT22;7070;53.586;9.692;2023-04-25T12:03:02;10.50;73.30
13992;DHT22;7070;53.586;9.692;2023-04-25T12:05:31;10.60;73.90
13992;DHT22;7070;53.586;9.692;2023-04-25T12:08:09;10.60;74.20
13992;DHT22;7070;53.586;9.692;2023-04-25T12:10:37;10.80;74.20
13992;DHT22;7070;53.586;9.692;2023-04-25T12:13:19;10.80;73.70
13992;DHT22;7070;53.586;9.692;2023-04-25T12:15:46;11.00;73.80
13992;DHT22;7070;53.586;9.692;2023-04-25T12:18:13;10.90;73.00
13992;DHT22;7070;53.586;9.692;2023-04-25T12:20:41;11.00;72.40
13992;DHT22;7070;53.586;9.692;2023-04-25T12:23:08;11.00;72.20
13992;DHT22;7070;53.586;9.692;2023-04-25T12:25:37;10.90;71.70
13992;DHT22;7070;53.586;9.692;2023-04-25T12:28:12;10.90;71.60
13992;DHT22;7070;53.586;9.692;2023-04-25T12:30:56;10.90;71.90
13992;DHT22;7070;53.586;9.692;2023-04-25T12:33:24;10.90;72.50
13992;DHT22;7070;53.586;9.692;2023-04-25T12:35:52;11.00;73.40
13992;DHT22;7070;53.586;9.692;2023-04-25T12:38:23;11.20;73.50
13992;DHT22;7070;53.586;9.692;2023-04-25T12:40:50;11.30;72.80
13992;DHT22;7070;53.586;9.692;2023-04-25T12:43:17;11.40;72.10
13992;DHT22;7070;53.586;9.692;2023-04-25T12:45:44;11.30;71.20
13992;DHT22;7070;53.586;9.692;2023-04-25T12:48:11;11.20;70.30
13992;DHT22;7070;53.586;9.692;2023-04-25T12:50:38;11.00;70.30
13992;DHT22;7070;53.586;9.692;2023-04-25T12:53:06;10.90;70.80
13992;DHT22;7070;53.586;9.692;2023-04-25T12:55:33;10.70;71.40
13992;DHT22;7070;53.586;9.692;2023-04-25T12:58:00;10.70;72.80
13992;DHT22;7070;53.586;9.692;2023-04-25T13:00:28;10.90;73.40
13992;DHT22;7070;53.586;9.692;2023-04-25T13:02:55;11.00;72.70
13992;DHT22;7070;53.586;9.692;2023-04-25T13:05:22;11.10;72.10
13992;DHT22;7070;53.586;9.692;2023-04-25T13:07:49;11.00;71.10
13992;DHT22;7070;53.586;9.692;2023-04-25T13:10:18;10.90;70.60
13992;DHT22;7070;53.586;9.692;2023-04-25T13:12:44;10.60;70.50
13992;DHT22;7070;53.586;9.692;2023-04-25T13:15:12;10.40;70.80
13992;DHT22;7070;53.586;9.692;2023-04-25T13:17:41;10.30;71.30
13992;DHT22;7070;53.586;9.692;2023-04-25T13:20:09;10.00;71.10
13992;DHT22;7070;53.586;9.692;2023-04-25T13:22:37;9.90;72.10
13992;DHT22;7070;53.586;9.692;2023-04-25T13:25:05;9.70;72.10
13992;DHT22;7070;53.586;9.692;2023-04-25T13:27:35;9.70;72.60
13992;DHT22;7070;53.586;9.692;2023-04-25T13:30:04;9.60;73.50
13992;DHT22;7070;53.586;9.692;2023-04-25T13:32:33;9.70;74.50
13992;DHT22;7070;53.586;9.692;2023-04-25T13:35:01;9.70;74.90
13992;DHT22;7070;53.586;9.692;2023-04-25T13:37:28;9.90;73.90
13992;DHT22;7070;53.586;9.692;2023-04-25T13:39:56;9.90;72.70
13992;DHT22;7070;53.586;9.692;2023-04-25T13:42:23;9.90;72.10
13992;DHT22;7070;53.586;9.692;2023-04-25T13:44:51;9.70;71.00
13992;DHT22;7070;53.586;9.692;2023-04-25T13:47:18;9.40;71.10
13992;DHT22;7070;53.586;9.692;2023-04-25T13:49:45;9.10;72.00
13992;DHT22;7070;53.586;9.692;2023-04-25T13:52:12;8.90;73.20
13992;DHT22;7070;53.586;9.692;2023-04-25T13:54:39;8.70;74.40
13992;DHT22;7070;53.586;9.692;2023-04-25T13:57:06;8.60;75.40
13992;DHT22;7070;53.586;9.692;2023-04-25T13:59:33;8.60;76.20
13992;DHT22;7070;53.586;9.692;2023-04-25T14:02:01;8.60;76.80
13992;DHT22;7070;53.586;9.692;2023-04-25T14:04:28;8.70;77.00
13992;DHT22;7070;53.586;9.692;2023-04-25T14:06:55;8.70;77.00
13992;DHT22;7070;53.586;9.692;2023-04-25T14:09:22;8.70;77.20
13992;DHT22;7070;53.586;9.692;2023-04-25T14:11:51;8.60;76.90
13992;DHT22;7070;53.586;9.692;2023-04-25T14:14:17;8.60;76.90
13992;DHT22;7070;53.586;9.692;2023-04-25T14:16:44;8.70;77.50
13992;DHT22;7070;53.586;9.692;2023-04-25T14:19:15;8.60;77.80
13992;DHT22;7070;53.586;9.692;2023-04-25T14:21:42;8.70;77.80
13992;DHT22;7070;53.586;9.692;2023-04-25T14:24:09;8.70;77.60
13992;DHT22;7070;53.586;9.692;2023-04-25T14:26:36;8.80;77.50
13992;DHT22;7070;53.586;9.692;2023-04-25T14:29:03;8.70;77.40
13992;DHT22;7070;53.586;9.692;2023-04-25T14:31:30;8.70;77.50
13992;DHT22;7070;53.586;9.692;2023-04-25T14:33:57;8.70;77.40
13992;DHT22;7070;53.586;9.692;2023-04-25T14:36:25;8.70;77.40
13992;DHT22;7070;53.586;9.692;2023-04-25T14:38:52;8.60;77.20
13992;DHT22;7070;53.586;9.692;2023-04-25T14:41:19;8.70;77.30
13992;DHT22;7070;53.586;9.692;2023-04-25T14:43:46;8.70;77.30
13992;DHT22;7070;53.586;9.692;2023-04-25T14:46:13;8.70;77.20
13992;DHT22;7070;53.586;9.692;2023-04-25T14:48:41;8.80;77.40
13992;DHT22;7070;53.586;9.692;2023-04-25T14:51:08;9.00;78.40
13992;DHT22;7070;53.586;9.692;2023-04-25T14:53:37;9.20;77.50
13992;DHT22;7070;53.586;9.692;2023-04-25T14:56:04;9.40;77.30
13992;DHT22;7070;53.586;9.692;2023-04-25T14:58:32;9.50;76.10
13992;DHT22;7070;53.586;9.692;2023-04-25T15:00:59;9.70;75.90
13992;DHT22;7070;53.586;9.692;2023-04-25T15:03:26;9.90;76.00
13992;DHT22;7070;53.586;9.692;2023-04-25T15:05:54;9.90;75.90
13992;DHT22;7070;53.586;9.692;2023-04-25T15:08:21;9.90;75.90
13992;DHT22;7070;53.586;9.692;2023-04-25T15:10:50;10.00;75.10
13992;DHT22;7070;53.586;9.692;2023-04-25T15:13:18;10.10;75.10
13992;DHT22;7070;53.586;9.692;2023-04-25T15:15:45;10.10;74.60
13992;DHT22;7070;53.586;9.692;2023-04-25T15:18:16;10.10;73.90
13992;DHT22;7070;53.586;9.692;2023-04-25T15:20:43;10.10;73.60
13992;DHT22;7070;53.586;9.692;2023-04-25T15:23:11;10.00;73.20
13992;DHT22;7070;53.586;9.692;2023-04-25T15:25:37;9.90;73.90
13992;DHT22;7070;53.586;9.692;2023-04-25T15:28:06;9.90;73.40
13992;DHT22;7070;53.586;9.692;2023-04-25T15:30:32;9.80;72.50
13992;DHT22;7070;53.586;9.692;2023-04-25T15:32:59;9.80;72.40
13992;DHT22;7070;53.586;9.692;2023-04-25T15:35:26;9.60;71.90
13992;DHT22;7070;53.586;9.692;2023-04-25T15:37:53;9.50;71.70
13992;DHT22;7070;53.586;9.692;2023-04-25T15:40:20;9.50;71.70
13992;DHT22;7070;53.586;9.692;2023-04-25T15:42:48;9.40;71.80
13992;DHT22;7070;53.586;9.692;2023-04-25T15:45:19;9.40;71.70
13992;DHT22;7070;53.586;9.692;2023-04-25T15:47:46;9.30;71.50
13992;DHT22;7070;53.586;9.692;2023-04-25T15:50:13;9.30;71.70
13992;DHT22;7070;53.586;9.692;2023-04-25T15:52:40;9.30;72.00
13992;DHT22;7070;53.586;9.692;2023-04-25T15:55:09;9.30;72.30
13992;DHT22;7070;53.586;9.692;2023-04-25T15:57:37;9.50;72.10
13992;DHT22;7070;53.586;9.692;2023-04-25T16:00:07;9.70;72.00